Time;durP1;ratioP1;P1;durP2;ratioP2;P2;SDS_P1;SDS_P2;PMS_P1;PMS_P2;Temp;Humidity;BMP_temperature;BMP_pressure;BME280_temperature;BME280_humidity;BME280_pressure;Samples;Min_cycle;Max_cycle;Signal;HPM_P1;HPM_P2
2022/10/14 00:00:24;;;;;;;67.37;52.57;;;21.70;99.90;;;;;;5135185;28;20194;-95
2022/10/14 00:02:55;;;;;;;62.73;52.23;;;21.60;99.90;;;;;;5138085;28;20597;-94
2022/10/14 00:05:26;;;;;;;67.70;53.33;;;21.50;99.90;;;;;;5119766;28;20269;-94
2022/10/14 00:07:58;;;;;;;74.80;53.67;;;21.40;99.90;;;;;;5125695;28;20305;-94
2022/10/14 00:10:29;;;;;;;121.83;54.83;;;21.30;99.90;;;;;;5119373;28;20224;-93
2022/10/14 00:13:03;;;;;;;315.40;65.17;;;21.20;99.90;;;;;;5117599;28;20206;-94
2022/10/14 00:15:40;;;;;;;123.00;54.33;;;21.00;99.90;;;;;;5119217;28;20199;-93
2022/10/14 00:18:11;;;;;;;85.93;53.83;;;21.00;99.90;;;;;;5117020;28;20236;-94
2022/10/14 00:20:43;;;;;;;117.97;52.93;;;20.90;99.90;;;;;;5117713;28;20202;-94
2022/10/14 00:23:14;;;;;;;106.30;54.27;;;20.70;99.90;;;;;;5116655;28;20210;-94
2022/10/14 00:25:46;;;;;;;103.47;53.30;;;20.60;99.90;;;;;;5117427;28;20212;-94
2022/10/14 00:28:19;;;;;;;82.80;52.20;;;20.50;99.90;;;;;;5116880;28;20225;-95
2022/10/14 00:30:57;;;;;;;74.30;51.03;;;20.40;99.90;;;;;;5117521;28;20207;-94
2022/10/14 00:33:29;;;;;;;66.83;50.57;;;20.20;99.90;;;;;;5117607;28;20202;-94
2022/10/14 00:36:04;;;;;;;67.00;50.43;;;20.10;99.90;;;;;;5117743;28;20655;-94
2022/10/14 00:38:36;;;;;;;62.90;49.10;;;19.90;99.90;;;;;;5116739;28;20241;-94
2022/10/14 00:41:08;;;;;;;64.20;50.07;;;19.80;99.90;;;;;;5117107;28;20689;-95
2022/10/14 00:44:02;;;;;;;57.23;49.40;;;19.70;99.90;;;;;;5115427;28;20202;-95
2022/10/14 00:46:35;;;;;;;62.17;49.67;;;19.60;99.90;;;;;;5117654;28;20214;-94
2022/10/14 00:49:09;;;;;;;71.10;49.60;;;19.40;99.90;;;;;;5117058;28;20212;-95
2022/10/14 00:51:42;;;;;;;65.27;49.70;;;19.30;99.90;;;;;;5099068;28;20225;-94
2022/10/14 00:54:16;;;;;;;77.60;49.67;;;19.20;99.90;;;;;;5117423;28;20581;-94
2022/10/14 00:56:49;;;;;;;60.80;49.20;;;19.10;99.90;;;;;;5118321;28;20291;-94
2022/10/14 00:59:23;;;;;;;61.27;48.90;;;19.00;99.90;;;;;;5122104;28;20210;-94
2022/10/14 01:01:54;;;;;;;62.87;48.53;;;18.90;99.90;;;;;;5108430;28;20217;-93
2022/10/14 01:04:26;;;;;;;57.73;47.83;;;18.80;99.90;;;;;;5120809;28;20206;-94
2022/10/14 01:07:07;;;;;;;61.97;47.17;;;18.70;99.90;;;;;;5119762;28;20210;-93
2022/10/14 01:09:44;;;;;;;61.80;48.10;;;18.60;99.90;;;;;;5118530;28;20221;-94
2022/10/14 01:12:22;;;;;;;60.57;48.00;;;18.60;99.90;;;;;;5117421;28;20210;-94
2022/10/14 01:15:12;;;;;;;61.37;49.17;;;18.50;99.90;;;;;;5118860;28;20263;-93
2022/10/14 01:17:54;;;;;;;66.27;53.10;;;18.50;99.90;;;;;;5117458;28;20230;-93
2022/10/14 01:20:49;;;;;;;61.10;50.23;;;18.50;99.90;;;;;;5119534;28;20202;-92
2022/10/14 01:24:07;;;;;;;63.10;52.47;;;18.50;99.90;;;;;;5117925;28;20236;-93
2022/10/14 01:26:58;;;;;;;66.13;52.93;;;18.40;99.90;;;;;;5106398;28;20218;-93
2022/10/14 01:30:00;;;;;;;69.00;53.97;;;18.40;99.90;;;;;;5119235;28;20202;-92
2022/10/14 01:32:38;;;;;;;66.10;52.10;;;18.30;99.90;;;;;;5118343;28;20577;-94
2022/10/14 01:35:20;;;;;;;61.23;48.97;;;18.20;99.90;;;;;;5134523;28;20213;-92
2022/10/14 01:37:54;;;;;;;55.10;46.43;;;18.10;99.90;;;;;;5135063;28;20260;-93
2022/10/14 01:40:36;;;;;;;63.43;48.57;;;18.00;99.90;;;;;;5117590;28;20198;-92
2022/10/14 01:43:08;;;;;;;58.37;48.03;;;17.90;99.90;;;;;;5117439;28;20271;-93
2022/10/14 01:45:45;;;;;;;57.73;46.93;;;17.80;99.90;;;;;;5117335;28;20206;-94
2022/10/14 01:48:20;;;;;;;56.30;46.70;;;17.70;99.90;;;;;;5119434;28;20201;-92
2022/10/14 01:50:55;;;;;;;60.00;46.83;;;17.50;99.90;;;;;;5130621;28;20182;-94
2022/10/14 01:53:30;;;;;;;58.33;46.50;;;17.40;99.90;;;;;;5122529;28;20198;-93
2022/10/14 01:56:03;;;;;;;55.30;44.63;;;17.20;99.90;;;;;;5115943;28;20216;-94
2022/10/14 01:58:37;;;;;;;53.80;43.43;;;17.10;99.90;;;;;;5118801;28;20621;-93
2022/10/14 02:01:11;;;;;;;54.90;44.77;;;17.00;99.90;;;;;;5118305;28;20227;-93
2022/10/14 02:03:44;;;;;;;49.27;40.13;;;16.90;99.90;;;;;;5105750;28;20207;-93
2022/10/14 02:06:19;;;;;;;52.87;39.50;;;16.80;99.90;;;;;;5097709;28;20647;-93
2022/10/14 02:09:04;;;;;;;54.30;41.00;;;16.70;99.90;;;;;;5095019;28;20206;-94
2022/10/14 02:11:40;;;;;;;51.53;39.60;;;16.70;99.90;;;;;;5077269;28;20210;-93
2022/10/14 02:14:20;;;;;;;49.93;39.37;;;16.70;99.90;;;;;;5094056;28;20315;-93
2022/10/14 02:17:01;;;;;;;47.87;38.80;;;16.60;99.90;;;;;;5094630;28;20207;-93
2022/10/14 02:19:40;;;;;;;57.03;39.87;;;16.50;99.90;;;;;;5083762;28;20226;-93
2022/10/14 02:22:21;;;;;;;53.37;39.33;;;16.50;99.90;;;;;;5114820;28;20210;-93
2022/10/14 02:24:57;;;;;;;51.43;39.27;;;16.40;99.90;;;;;;5115377;28;20563;-93
2022/10/14 02:27:29;;;;;;;51.20;40.30;;;16.20;99.90;;;;;;5097625;28;20212;-93
2022/10/14 02:30:03;;;;;;;51.93;39.03;;;16.20;99.90;;;;;;5115751;28;20214;-94
2022/10/14 02:32:37;;;;;;;51.07;39.43;;;16.10;99.90;;;;;;5115740;28;20206;-92
2022/10/14 02:35:13;;;;;;;49.73;40.33;;;16.10;99.90;;;;;;5124377;28;20201;-93
2022/10/14 02:37:46;;;;;;;48.87;40.73;;;16.00;99.90;;;;;;5134862;28;20217;-93
2022/10/14 02:40:22;;;;;;;49.70;38.57;;;15.90;99.90;;;;;;5135374;28;20186;-93
2022/10/14 02:42:54;;;;;;;60.20;40.37;;;15.90;99.90;;;;;;5135173;27;20204;-93
2022/10/14 02:45:27;;;;;;;53.10;39.23;;;15.80;99.90;;;;;;5136665;28;20249;-93
2022/10/14 02:48:00;;;;;;;49.53;41.17;;;15.70;99.90;;;;;;5137324;28;20178;-92
2022/10/14 02:50:31;;;;;;;55.60;40.97;;;15.60;99.90;;;;;;5136698;28;20195;-94
2022/10/14 02:53:02;;;;;;;54.37;41.23;;;15.60;99.90;;;;;;5136580;28;20190;-92
2022/10/14 02:55:33;;;;;;;53.00;39.93;;;15.60;99.90;;;;;;5136734;28;20266;-93
2022/10/14 02:58:05;;;;;;;51.17;39.83;;;15.50;99.90;;;;;;5122772;28;20716;-92
2022/10/14 03:00:36;;;;;;;50.83;40.10;;;15.50;99.90;;;;;;5115798;28;20215;-92
2022/10/14 03:03:11;;;;;;;51.30;40.63;;;15.40;99.90;;;;;;5115098;28;20286;-92
2022/10/14 03:05:42;;;;;;;54.00;39.97;;;15.40;99.90;;;;;;5114856;28;20214;-93
2022/10/14 03:08:13;;;;;;;51.57;39.57;;;15.30;99.90;;;;;;5117271;28;20209;-93
2022/10/14 03:10:47;;;;;;;50.90;40.17;;;15.30;99.90;;;;;;5118712;28;20278;-93
2022/10/14 03:13:19;;;;;;;51.93;40.00;;;15.30;99.90;;;;;;5117922;28;20210;-93
2022/10/14 03:15:51;;;;;;;52.70;39.40;;;15.20;99.90;;;;;;5101009;28;20221;-94
2022/10/14 03:18:24;;;;;;;54.37;40.10;;;15.20;99.90;;;;;;5117965;28;20682;-93
2022/10/14 03:20:55;;;;;;;48.87;38.43;;;15.10;99.90;;;;;;5118450;28;20202;-92
2022/10/14 03:23:26;;;;;;;48.00;38.17;;;15.10;99.90;;;;;;5118137;28;20243;-92
2022/10/14 03:25:58;;;;;;;45.23;36.63;;;15.00;99.90;;;;;;5130706;28;20228;-93
2022/10/14 03:28:29;;;;;;;46.90;36.73;;;15.00;99.90;;;;;;5125071;28;20202;-93
2022/10/14 03:31:00;;;;;;;49.90;38.07;;;15.00;99.90;;;;;;5118804;28;20221;-94
2022/10/14 03:33:33;;;;;;;48.03;38.03;;;14.90;99.90;;;;;;5118384;28;20199;-93
2022/10/14 03:36:04;;;;;;;48.80;38.53;;;14.80;99.90;;;;;;5119153;28;20214;-94
2022/10/14 03:38:35;;;;;;;55.27;39.23;;;14.80;99.90;;;;;;5118174;28;20250;-93
2022/10/14 03:41:07;;;;;;;46.77;37.33;;;14.70;99.90;;;;;;5117546;28;20213;-93
2022/10/14 03:43:39;;;;;;;47.87;36.67;;;14.70;99.90;;;;;;5117457;28;20238;-93
2022/10/14 03:46:10;;;;;;;50.77;36.93;;;14.60;99.90;;;;;;5117833;28;20658;-93
2022/10/14 03:48:43;;;;;;;44.90;36.50;;;14.60;99.90;;;;;;5117638;28;20263;-93
2022/10/14 03:51:18;;;;;;;51.00;38.23;;;14.50;99.90;;;;;;5099909;28;20654;-92
2022/10/14 03:53:49;;;;;;;47.80;37.03;;;14.50;99.90;;;;;;5116748;28;20210;-93
2022/10/14 03:56:21;;;;;;;49.87;37.47;;;14.50;99.90;;;;;;5100274;28;20332;-91
2022/10/14 03:58:53;;;;;;;51.33;38.47;;;14.40;99.90;;;;;;5117252;28;20229;-92
2022/10/14 04:01:24;;;;;;;49.13;38.63;;;14.40;99.90;;;;;;5117438;28;20202;-93
2022/10/14 04:03:57;;;;;;;47.83;37.43;;;14.30;99.90;;;;;;5116177;28;20723;-91
2022/10/14 04:06:29;;;;;;;50.10;37.20;;;14.30;99.90;;;;;;5099651;28;20689;-92
2022/10/14 04:09:01;;;;;;;50.53;38.87;;;14.20;99.90;;;;;;5117266;28;20209;-93
2022/10/14 04:11:32;;;;;;;49.70;38.03;;;14.20;99.90;;;;;;5099542;28;20209;-93
2022/10/14 04:14:04;;;;;;;49.73;39.00;;;14.20;99.90;;;;;;5098436;28;20210;-92
2022/10/14 04:16:35;;;;;;;53.77;39.10;;;14.20;99.90;;;;;;5117417;28;20217;-92
2022/10/14 04:19:08;;;;;;;48.90;39.40;;;14.10;99.90;;;;;;5098201;28;20229;-91
2022/10/14 04:21:39;;;;;;;53.67;40.83;;;14.10;99.90;;;;;;5099176;28;20205;-92
2022/10/14 04:24:10;;;;;;;47.50;39.00;;;14.10;99.90;;;;;;5116200;28;20218;-93
2022/10/14 04:26:41;;;;;;;51.03;39.53;;;14.10;99.90;;;;;;5099543;28;20202;-93
2022/10/14 04:29:13;;;;;;;51.93;41.00;;;14.00;99.90;;;;;;5116332;28;20213;-93
2022/10/14 04:31:44;;;;;;;55.73;39.70;;;13.90;99.90;;;;;;5116378;28;20205;-92
2022/10/14 04:34:17;;;;;;;52.13;39.53;;;13.90;99.90;;;;;;5116632;28;20229;-93
2022/10/14 04:36:48;;;;;;;52.53;40.17;;;13.90;99.90;;;;;;5116878;28;20297;-92
2022/10/14 04:39:19;;;;;;;60.50;39.63;;;13.90;99.90;;;;;;5116716;28;20316;-91
2022/10/14 04:41:50;;;;;;;49.30;38.80;;;13.80;99.90;;;;;;5115478;28;20212;-92
2022/10/14 04:44:22;;;;;;;54.50;38.77;;;13.80;99.90;;;;;;5098142;28;20206;-92
2022/10/14 04:46:52;;;;;;;49.23;39.07;;;13.80;99.90;;;;;;5116578;28;20217;-89
2022/10/14 04:49:25;;;;;;;49.87;38.20;;;13.80;99.90;;;;;;5118723;28;20233;-92
2022/10/14 04:51:56;;;;;;;53.37;38.50;;;13.70;99.90;;;;;;5098807;28;20232;-93
2022/10/14 04:54:28;;;;;;;52.00;38.70;;;13.70;99.90;;;;;;5119398;28;20210;-93
2022/10/14 04:56:59;;;;;;;55.17;38.50;;;13.70;99.90;;;;;;5131934;28;20198;-93
2022/10/14 04:59:30;;;;;;;50.37;37.40;;;13.70;99.90;;;;;;5135689;28;20230;-93
2022/10/14 05:02:01;;;;;;;54.90;37.60;;;13.60;99.90;;;;;;5114748;28;20258;-93
2022/10/14 05:04:34;;;;;;;50.23;37.63;;;13.60;99.90;;;;;;5117567;28;20306;-93
2022/10/14 05:07:05;;;;;;;50.00;36.97;;;13.50;99.90;;;;;;5100183;28;20239;-92
2022/10/14 05:09:37;;;;;;;51.43;36.03;;;13.50;99.90;;;;;;5081500;28;20244;-93
2022/10/14 05:12:08;;;;;;;50.70;37.50;;;13.50;99.90;;;;;;5096557;28;20660;-93
2022/10/14 05:14:39;;;;;;;50.40;37.13;;;13.50;99.90;;;;;;5098336;28;20202;-92
2022/10/14 05:17:10;;;;;;;47.33;35.13;;;13.40;99.90;;;;;;5098810;28;20378;-92
2022/10/14 05:19:44;;;;;;;46.13;35.67;;;13.40;99.90;;;;;;5096055;28;20721;-93
2022/10/14 05:22:15;;;;;;;45.73;34.07;;;13.30;99.90;;;;;;5094935;28;20219;-93
2022/10/14 05:24:46;;;;;;;48.90;35.07;;;13.30;99.90;;;;;;5096315;28;20217;-93
2022/10/14 05:27:18;;;;;;;44.53;33.57;;;13.30;99.90;;;;;;5077906;28;20214;-92
2022/10/14 05:29:49;;;;;;;48.73;34.43;;;13.30;99.90;;;;;;5095114;28;20238;-93
2022/10/14 05:32:20;;;;;;;47.23;35.10;;;13.20;99.90;;;;;;5094488;28;20210;-94
2022/10/14 05:34:54;;;;;;;39.97;31.97;;;13.20;99.90;;;;;;5094814;28;20215;-93
2022/10/14 05:37:26;;;;;;;46.23;32.53;;;13.10;99.90;;;;;;5094927;28;20216;-93
2022/10/14 05:39:57;;;;;;;44.80;32.53;;;13.10;99.90;;;;;;5094389;28;20242;-92
2022/10/14 05:42:28;;;;;;;42.43;31.60;;;13.10;99.90;;;;;;5093807;28;20245;-92
2022/10/14 05:44:59;;;;;;;42.90;30.90;;;13.10;99.90;;;;;;5094766;28;20218;-92
2022/10/14 05:47:30;;;;;;;40.80;31.87;;;13.00;99.90;;;;;;5095137;28;20206;-92
2022/10/14 05:50:05;;;;;;;39.20;32.23;;;13.00;99.90;;;;;;5105934;28;20219;-93
2022/10/14 05:52:39;;;;;;;43.83;33.07;;;12.90;99.90;;;;;;5099785;28;20198;-93
2022/10/14 05:55:11;;;;;;;47.23;31.33;;;12.90;99.90;;;;;;5095366;28;20271;-93
2022/10/14 05:57:43;;;;;;;45.97;32.60;;;12.90;99.90;;;;;;5094926;28;20214;-92
2022/10/14 06:00:16;;;;;;;46.60;33.60;;;12.80;99.90;;;;;;5094670;28;20230;-92
2022/10/14 06:02:53;;;;;;;45.93;34.00;;;12.80;99.90;;;;;;5093786;28;20210;-92
2022/10/14 06:05:26;;;;;;;44.00;32.97;;;12.70;99.90;;;;;;5094469;28;20213;-93
2022/10/14 06:07:58;;;;;;;47.40;34.33;;;12.70;99.90;;;;;;5077505;28;20211;-92
2022/10/14 06:10:30;;;;;;;41.27;33.43;;;12.70;99.90;;;;;;5095156;28;20234;-92
2022/10/14 06:13:01;;;;;;;47.83;36.30;;;12.60;99.90;;;;;;5093677;28;20226;-92
2022/10/14 06:15:32;;;;;;;45.07;35.73;;;12.60;99.90;;;;;;5095274;28;20209;-93
2022/10/14 06:18:03;;;;;;;43.67;33.40;;;12.50;99.90;;;;;;5095129;28;20207;-92
2022/10/14 06:20:37;;;;;;;43.33;32.07;;;12.50;99.90;;;;;;5094664;28;20253;-92
2022/10/14 06:23:08;;;;;;;38.10;29.37;;;12.40;99.90;;;;;;5093518;28;20213;-92
2022/10/14 06:25:39;;;;;;;40.27;30.67;;;12.50;99.90;;;;;;5094627;28;20207;-92
2022/10/14 06:28:10;;;;;;;42.07;31.37;;;12.40;99.90;;;;;;5095139;28;20227;-93
2022/10/14 06:30:41;;;;;;;47.17;32.27;;;12.40;99.90;;;;;;5095170;28;20626;-92
2022/10/14 06:33:12;;;;;;;40.17;31.27;;;12.40;99.90;;;;;;5094440;28;20210;-92
2022/10/14 06:35:46;;;;;;;44.47;32.53;;;12.40;99.90;;;;;;5100185;28;20202;-93
2022/10/14 06:38:17;;;;;;;42.93;31.80;;;12.40;99.90;;;;;;5095868;28;20203;-92
2022/10/14 06:40:50;;;;;;;39.90;30.97;;;12.40;99.90;;;;;;5097803;28;20234;-91
2022/10/14 06:43:23;;;;;;;38.87;30.50;;;12.40;99.90;;;;;;5081295;28;20211;-91
2022/10/14 06:45:58;;;;;;;41.30;31.40;;;12.40;99.90;;;;;;5101341;28;20719;-92
2022/10/14 06:48:30;;;;;;;43.77;30.37;;;12.30;99.90;;;;;;5105773;28;20203;-93
2022/10/14 06:51:03;;;;;;;35.70;27.70;;;12.30;99.90;;;;;;5100770;28;20198;-92
2022/10/14 06:53:35;;;;;;;39.37;29.00;;;12.30;99.90;;;;;;5100114;28;20211;-92
2022/10/14 06:56:08;;;;;;;39.43;28.63;;;12.30;99.90;;;;;;5086987;28;20301;-93
2022/10/14 06:58:39;;;;;;;38.37;27.90;;;12.30;99.90;;;;;;5090205;28;20213;-93
2022/10/14 07:01:10;;;;;;;39.73;28.43;;;12.30;99.90;;;;;;5118261;28;20234;-92
2022/10/14 07:03:42;;;;;;;39.93;26.93;;;12.20;99.90;;;;;;5116855;28;20191;-91
2022/10/14 07:06:16;;;;;;;33.97;25.90;;;12.20;99.90;;;;;;5111102;28;20296;-92
2022/10/14 07:08:48;;;;;;;33.40;25.53;;;12.20;99.90;;;;;;5101138;28;20208;-93
2022/10/14 07:11:18;;;;;;;33.33;25.13;;;12.10;99.90;;;;;;5099371;28;20586;-92
2022/10/14 07:13:49;;;;;;;32.93;23.77;;;12.20;99.90;;;;;;5098100;28;20203;-91
2022/10/14 07:16:20;;;;;;;37.93;24.93;;;12.20;99.90;;;;;;5098044;28;20230;-92
2022/10/14 07:18:52;;;;;;;31.77;23.80;;;12.10;99.90;;;;;;5098235;28;20260;-91
2022/10/14 07:21:25;;;;;;;30.83;23.07;;;12.10;99.90;;;;;;5097553;28;20261;-92
2022/10/14 07:23:56;;;;;;;30.90;23.20;;;12.10;99.90;;;;;;5097547;28;20218;-92
2022/10/14 07:26:28;;;;;;;31.00;23.23;;;12.10;99.90;;;;;;5098205;28;20207;-93
2022/10/14 07:29:00;;;;;;;34.93;24.10;;;12.10;99.90;;;;;;5097930;28;20238;-93
2022/10/14 07:31:31;;;;;;;29.60;21.77;;;12.00;99.90;;;;;;5097605;28;20286;-92
2022/10/14 07:34:02;;;;;;;31.97;23.70;;;12.00;99.90;;;;;;5079416;28;20203;-92
2022/10/14 07:36:36;;;;;;;32.43;23.90;;;12.00;99.90;;;;;;5097451;28;20199;-92
2022/10/14 07:39:07;;;;;;;33.00;22.17;;;12.00;99.90;;;;;;5099947;28;20203;-93
2022/10/14 07:41:40;;;;;;;31.80;22.53;;;11.90;99.90;;;;;;5099672;28;20239;-92
2022/10/14 07:44:13;;;;;;;26.53;20.40;;;11.90;99.90;;;;;;5098771;28;20237;-91
2022/10/14 07:46:46;;;;;;;29.47;22.03;;;11.90;99.90;;;;;;5100902;28;20210;-92
2022/10/14 07:49:19;;;;;;;30.00;21.03;;;11.90;99.90;;;;;;5098318;28;20207;-92
2022/10/14 07:51:52;;;;;;;29.03;21.00;;;11.80;99.90;;;;;;5081375;28;20218;-91
2022/10/14 07:54:28;;;;;;;27.23;20.23;;;11.80;99.90;;;;;;5098448;28;20203;-91
2022/10/14 07:56:59;;;;;;;28.97;20.57;;;11.80;99.90;;;;;;5096798;28;20217;-92
2022/10/14 07:59:30;;;;;;;29.30;20.00;;;11.70;99.90;;;;;;5080311;28;20207;-91
2022/10/14 08:02:01;;;;;;;27.13;19.97;;;11.70;99.90;;;;;;5099159;28;20235;-92
2022/10/14 08:04:33;;;;;;;28.50;19.37;;;11.70;99.90;;;;;;5096775;28;20206;-93
2022/10/14 08:07:06;;;;;;;26.33;20.07;;;11.70;99.90;;;;;;5096687;28;20235;-91
2022/10/14 08:09:37;;;;;;;27.77;20.00;;;11.70;99.90;;;;;;5096758;28;20203;-92
2022/10/14 08:12:09;;;;;;;29.63;21.40;;;11.60;99.90;;;;;;5088357;28;20535;-92
2022/10/14 08:14:40;;;;;;;30.07;19.70;;;11.60;99.90;;;;;;5121378;28;20217;-92
2022/10/14 08:17:11;;;;;;;27.20;18.93;;;11.60;99.90;;;;;;5117754;28;20206;-92
2022/10/14 08:19:42;;;;;;;29.27;20.70;;;11.60;99.90;;;;;;5116808;28;20654;-91
2022/10/14 08:22:14;;;;;;;28.13;20.17;;;11.60;99.90;;;;;;5115733;28;20240;-91
2022/10/14 08:24:46;;;;;;;28.37;21.63;;;11.60;99.90;;;;;;5116515;28;20206;-92
2022/10/14 08:27:18;;;;;;;29.73;22.03;;;11.60;99.90;;;;;;5098409;28;20202;-91
2022/10/14 08:29:49;;;;;;;31.60;22.57;;;11.60;99.90;;;;;;5099176;28;20206;-93
2022/10/14 08:32:20;;;;;;;31.80;21.73;;;11.60;99.90;;;;;;5115445;28;20292;-93
2022/10/14 08:34:51;;;;;;;32.17;22.80;;;11.60;99.90;;;;;;5116474;28;20203;-93
2022/10/14 08:37:26;;;;;;;28.97;21.70;;;11.50;99.90;;;;;;5116517;28;20206;-93
2022/10/14 08:39:57;;;;;;;36.47;21.83;;;11.40;99.90;;;;;;5116504;28;20210;-92
2022/10/14 08:42:39;;;;;;;30.30;21.67;;;11.40;99.90;;;;;;5097764;28;20226;-92
2022/10/14 08:45:16;;;;;;;33.63;21.87;;;11.40;99.90;;;;;;5116479;28;20263;-92
2022/10/14 08:47:48;;;;;;;33.53;23.77;;;11.40;99.90;;;;;;5116407;28;20206;-93
2022/10/14 08:50:28;;;;;;;33.60;23.37;;;11.30;99.90;;;;;;5116466;28;20228;-92
2022/10/14 08:53:07;;;;;;;33.40;24.30;;;11.30;99.90;;;;;;5115271;28;20237;-92
2022/10/14 08:55:41;;;;;;;30.73;23.60;;;11.30;99.90;;;;;;5116003;28;20654;-93
2022/10/14 08:58:17;;;;;;;31.33;23.47;;;11.20;99.90;;;;;;5116515;28;20216;-92
2022/10/14 09:00:51;;;;;;;31.87;23.67;;;11.20;99.90;;;;;;5116348;28;20213;-92
2022/10/14 09:03:25;;;;;;;33.87;24.07;;;11.10;99.90;;;;;;5115190;28;20654;-92
2022/10/14 09:06:00;;;;;;;33.10;23.67;;;11.10;99.90;;;;;;5115029;28;20210;-92
2022/10/14 09:08:37;;;;;;;30.90;23.57;;;11.10;99.90;;;;;;5115645;28;20225;-92
2022/10/14 09:11:14;;;;;;;35.33;25.27;;;11.10;99.90;;;;;;5119923;28;20208;-92
2022/10/14 09:13:48;;;;;;;37.87;25.43;;;11.10;99.90;;;;;;5114689;28;20385;-91
2022/10/14 09:16:21;;;;;;;35.00;23.87;;;11.00;99.90;;;;;;5118478;28;20209;-93
2022/10/14 09:18:55;;;;;;;33.67;24.90;;;11.00;99.90;;;;;;5117564;28;20285;-92
2022/10/14 09:21:30;;;;;;;36.53;26.90;;;11.00;99.90;;;;;;5116671;28;20230;-92
2022/10/14 09:24:27;;;;;;;34.90;25.43;;;10.90;99.90;;;;;;5118243;28;20230;-92
2022/10/14 09:27:03;;;;;;;36.20;25.57;;;10.90;99.90;;;;;;5098434;28;20198;-92
2022/10/14 09:29:41;;;;;;;36.80;25.80;;;10.90;99.90;;;;;;5116410;28;20658;-92
2022/10/14 09:32:17;;;;;;;41.27;23.90;;;10.80;99.90;;;;;;5114995;28;20222;-94
2022/10/14 09:34:51;;;;;;;34.33;25.97;;;10.80;99.90;;;;;;5115439;28;20677;-91
2022/10/14 09:37:30;;;;;;;37.30;27.80;;;10.70;99.90;;;;;;5115497;28;20203;-91
2022/10/14 09:40:06;;;;;;;42.40;28.17;;;10.70;99.90;;;;;;5115386;28;20225;-92
2022/10/14 09:42:48;;;;;;;37.93;27.30;;;10.70;99.90;;;;;;5114311;28;20228;-92
2022/10/14 09:45:22;;;;;;;38.27;27.53;;;10.70;99.90;;;;;;5115253;28;20214;-92
2022/10/14 09:47:56;;;;;;;39.93;27.57;;;10.60;99.90;;;;;;5114626;28;20206;-92
2022/10/14 09:50:31;;;;;;;37.30;28.60;;;10.60;99.90;;;;;;5115349;28;20245;-93
2022/10/14 09:53:06;;;;;;;37.03;27.57;;;10.60;99.90;;;;;;5114078;28;20580;-92
2022/10/14 09:55:49;;;;;;;40.57;29.87;;;10.60;99.90;;;;;;5115292;28;20209;-91
2022/10/14 09:58:28;;;;;;;42.97;29.90;;;10.60;99.90;;;;;;5097661;28;20202;-93
2022/10/14 10:01:00;;;;;;;42.70;28.97;;;10.60;99.90;;;;;;5115178;28;20206;-91
2022/10/14 10:03:33;;;;;;;42.80;29.93;;;10.60;99.90;;;;;;5115634;28;20230;-92
2022/10/14 10:06:07;;;;;;;42.40;30.20;;;10.50;99.90;;;;;;5128117;28;20208;-92
2022/10/14 10:08:40;;;;;;;42.80;30.93;;;10.50;99.90;;;;;;5119786;28;20280;-92
2022/10/14 10:11:14;;;;;;;42.07;31.23;;;10.50;99.90;;;;;;5135097;28;20202;-92
2022/10/14 10:13:48;;;;;;;41.83;30.63;;;10.40;99.90;;;;;;5130800;28;20209;-92
2022/10/14 10:16:25;;;;;;;43.70;31.90;;;10.40;99.90;;;;;;5121018;28;20539;-92
2022/10/14 10:19:00;;;;;;;45.60;32.27;;;10.40;99.90;;;;;;5102398;28;20205;-92
2022/10/14 10:21:32;;;;;;;46.13;31.80;;;10.50;99.90;;;;;;5119440;28;20197;-92
2022/10/14 10:24:04;;;;;;;45.70;32.23;;;10.50;99.90;;;;;;5118442;28;20221;-92
2022/10/14 10:26:38;;;;;;;46.33;33.60;;;10.40;99.90;;;;;;5121647;28;20220;-91
2022/10/14 10:29:27;;;;;;;45.37;32.77;;;10.40;99.90;;;;;;5119761;28;20210;-92
2022/10/14 10:32:12;;;;;;;44.47;33.13;;;10.30;99.90;;;;;;5120679;28;20217;-92
2022/10/14 10:35:16;;;;;;;45.17;33.67;;;10.30;99.90;;;;;;5128347;28;20256;-91
2022/10/14 10:37:59;;;;;;;45.83;33.10;;;10.30;99.90;;;;;;5092273;28;20198;-91
2022/10/14 10:40:40;;;;;;;46.40;34.67;;;10.30;99.90;;;;;;5120177;28;20209;-91
2022/10/14 10:43:41;;;;;;;44.90;34.87;;;10.30;99.90;;;;;;5117691;28;20237;-92
2022/10/14 10:46:31;;;;;;;47.13;35.10;;;10.30;99.90;;;;;;5119896;28;20206;-93
2022/10/14 10:49:10;;;;;;;47.80;34.90;;;10.20;99.90;;;;;;5118662;28;20209;-92
2022/10/14 10:51:53;;;;;;;47.77;36.10;;;10.20;99.90;;;;;;5118207;28;20612;-91
2022/10/14 10:54:41;;;;;;;47.07;34.80;;;10.20;99.90;;;;;;5118350;28;20233;-91
2022/10/14 10:57:33;;;;;;;47.03;35.53;;;10.20;99.90;;;;;;5118259;28;20238;-91
2022/10/14 11:00:09;;;;;;;47.20;34.40;;;10.20;99.90;;;;;;5118382;28;20294;-91
2022/10/14 11:05:59;;;;;;;51.77;35.47;;;10.20;99.90;;;;;;5015635;27;3976852;-91
2022/10/14 11:14:40;;;;;;;48.67;35.27;;;10.10;99.90;;;;;;5133187;28;20306;-91
2022/10/14 11:17:20;;;;;;;45.80;33.97;;;10.10;99.90;;;;;;5122765;28;20217;-92
2022/10/14 11:19:57;;;;;;;47.03;33.97;;;10.10;99.90;;;;;;5115295;28;20229;-92
2022/10/14 11:22:54;;;;;;;46.40;34.27;;;10.00;99.90;;;;;;5131805;28;20318;-91
2022/10/14 11:25:43;;;;;;;45.10;32.27;;;10.00;99.90;;;;;;5132697;28;20264;-91
2022/10/14 11:28:23;;;;;;;46.73;32.93;;;10.00;99.90;;;;;;5132836;28;20201;-91
2022/10/14 11:31:02;;;;;;;48.30;34.70;;;9.90;99.90;;;;;;5132374;28;20198;-92
2022/10/14 11:33:48;;;;;;;44.83;33.53;;;9.90;99.90;;;;;;5113802;28;20233;-92
2022/10/14 11:36:32;;;;;;;45.43;33.17;;;9.90;99.90;;;;;;5131930;28;20229;-92
2022/10/14 11:42:12;;;;;;;42.37;32.77;;;9.90;99.90;;;;;;5114063;27;20592;-93
2022/10/14 11:44:44;;;;;;;42.37;32.63;;;9.90;99.90;;;;;;5113144;28;20213;-93
2022/10/14 11:47:20;;;;;;;43.03;32.73;;;10.00;99.90;;;;;;5114067;28;20242;-92
2022/10/14 11:49:59;;;;;;;42.37;32.63;;;9.90;99.90;;;;;;5117001;28;20259;-91
2022/10/14 11:52:36;;;;;;;46.97;33.07;;;9.90;99.90;;;;;;5114085;28;20202;-92
2022/10/14 11:55:14;;;;;;;44.97;31.90;;;9.90;99.90;;;;;;5115010;28;20210;-92
2022/10/14 11:57:52;;;;;;;46.77;32.87;;;9.90;99.90;;;;;;5114135;27;20576;-93
2022/10/14 12:00:28;;;;;;;45.97;31.83;;;9.90;99.90;;;;;;5113809;28;20240;-92
2022/10/14 12:03:08;;;;;;;42.53;32.10;;;9.90;99.90;;;;;;5114192;28;20206;-92
2022/10/14 12:05:44;;;;;;;43.10;31.97;;;9.90;99.90;;;;;;5112407;28;20220;-92
2022/10/14 12:08:24;;;;;;;43.67;32.53;;;9.90;99.90;;;;;;5112531;28;20206;-93
2022/10/14 12:11:05;;;;;;;43.53;32.27;;;9.80;99.90;;;;;;5112264;28;21027;-92
2022/10/14 12:13:43;;;;;;;40.13;31.07;;;9.80;99.90;;;;;;5110963;28;20681;-92
2022/10/14 12:16:17;;;;;;;42.87;32.13;;;9.80;99.90;;;;;;5112157;27;20210;-92
2022/10/14 12:18:51;;;;;;;42.20;30.93;;;9.80;99.90;;;;;;5112251;27;20224;-91
2022/10/14 12:21:29;;;;;;;41.47;29.90;;;9.80;99.90;;;;;;5111926;27;20281;-92
2022/10/14 12:24:05;;;;;;;42.67;30.20;;;9.80;99.90;;;;;;5112421;27;20214;-92
2022/10/14 12:26:51;;;;;;;39.57;29.93;;;9.80;99.90;;;;;;5112462;27;20293;-92
2022/10/14 12:29:29;;;;;;;38.80;28.13;;;9.80;99.90;;;;;;5117095;28;20214;-93
2022/10/14 12:32:19;;;;;;;39.90;28.70;;;9.80;99.90;;;;;;5131321;28;20210;-91
2022/10/14 12:34:53;;;;;;;39.20;29.20;;;9.80;99.90;;;;;;5130086;28;20194;-92
2022/10/14 12:37:55;;;;;;;38.73;28.17;;;9.80;99.90;;;;;;5116954;28;20210;-92
2022/10/14 12:40:32;;;;;;;41.93;28.50;;;9.80;99.90;;;;;;5111569;28;20226;-92
2022/10/14 12:43:22;;;;;;;37.00;29.43;;;9.70;99.90;;;;;;5111268;27;20669;-92
2022/10/14 12:46:15;;;;;;;40.07;28.23;;;9.70;99.90;;;;;;5110544;28;20210;-92
2022/10/14 12:48:51;;;;;;;39.00;28.10;;;9.70;99.90;;;;;;5111497;28;20281;-92
2022/10/14 12:51:26;;;;;;;38.77;28.30;;;9.60;99.90;;;;;;5108520;28;20631;-91
2022/10/14 12:54:07;;;;;;;37.13;27.27;;;9.60;99.90;;;;;;5102624;28;20670;-91
2022/10/14 12:56:43;;;;;;;39.60;28.03;;;9.60;99.90;;;;;;5101911;28;20305;-92
2022/10/14 12:59:24;;;;;;;41.03;28.10;;;9.60;99.90;;;;;;5098254;28;20214;-92
2022/10/14 13:02:03;;;;;;;37.37;28.47;;;9.60;99.90;;;;;;5096197;28;20260;-92
2022/10/14 13:04:35;;;;;;;42.37;28.30;;;9.50;99.90;;;;;;5097502;28;20565;-92
2022/10/14 13:07:33;;;;;;;39.67;28.07;;;9.50;99.90;;;;;;5098220;28;20255;-92
2022/10/14 13:10:28;;;;;;;41.10;29.03;;;9.50;99.90;;;;;;5100434;28;20670;-92
2022/10/14 13:12:59;;;;;;;38.20;28.23;;;9.50;99.90;;;;;;5093325;28;20241;-92
2022/10/14 13:16:00;;;;;;;39.87;28.60;;;9.50;99.90;;;;;;5101977;27;20706;-92
2022/10/14 13:18:51;;;;;;;39.73;28.17;;;9.50;99.90;;;;;;5099514;28;20546;-93
2022/10/14 13:21:30;;;;;;;37.40;28.07;;;9.50;99.90;;;;;;5098822;28;20231;-91